This is the latest recevied weather packets stored in our database for station/object KA9CBS. If no packets are shown the sender has not sent any weather packets the latest 10 day(s).
| Time | Temp. | Humidity | Pressure | Rain* | Wind** | Luminosity | Snow |
|---|---|---|---|---|---|---|---|
| 1787675806 | 27.22° C | 63% | 1020.9 hPa | 0 mm | - | 598 W/m² | - |
| 1787675502 | 27.22° C | 64% | 1021 hPa | 0 mm | - | 613 W/m² | - |
| 1787675200 | 27.78° C | 63% | 1021.1 hPa | 0 mm | - | 610 W/m² | - |
| 1787674895 | 26.67° C | 67% | 1021.1 hPa | 0 mm | - | 607 W/m² | - |
| 1787674590 | 26.67° C | 65% | 1021 hPa | 0 mm | - | 607 W/m² | - |
| 1787674286 | 26.67° C | 66% | 1020.9 hPa | 0 mm | - | 597 W/m² | - |
| 1787673980 | 26.67° C | 65% | 1021.1 hPa | 0 mm | - | 581 W/m² | - |
| 1787673675 | 27.22° C | 66% | 1021.1 hPa | 0 mm | - | 571 W/m² | - |
| 1787673369 | 27.78° C | 64% | 1021.1 hPa | 0 mm | - | 567 W/m² | - |
| 1787673063 | 27.22° C | 65% | 1021 hPa | 0 mm | - | 552 W/m² | - |
| 1787672758 | 26.67° C | 68% | 1021.3 hPa | 0 mm | - | 533 W/m² | - |
| 1787672454 | 25° C | 71% | 1021.2 hPa | 0 mm | - | 517 W/m² | - |
| 1787672153 | 25.56° C | 68% | 1021.4 hPa | 0 mm | - | 497 W/m² | - |
| 1787671848 | 26.11° C | 66% | 1021.3 hPa | 0 mm | - | 440 W/m² | - |
| 1787671544 | 25.56° C | 68% | 1021.1 hPa | 0 mm | - | 425 W/m² | - |
| 1787671239 | 25.56° C | 68% | 1021.1 hPa | 0 mm | - | 428 W/m² | - |
| 1787670939 | 26.11° C | 68% | 1021.3 hPa | 0 mm | - | 484 W/m² | - |
| 1787670635 | 25.56° C | 68% | 1021 hPa | 0 mm | - | 472 W/m² | - |
| 1787670335 | 25.56° C | 69% | 1021 hPa | 0 mm | - | 459 W/m² | - |
| 1787670030 | 25.56° C | 71% | 1021.1 hPa | 0 mm | - | 447 W/m² | - |
| 1787669730 | 25° C | 69% | 1021.2 hPa | 0 mm | - | 471 W/m² | - |
| 1787669425 | 25.56° C | 69% | 1021.2 hPa | 0 mm | - | 445 W/m² | - |
| 1787669121 | 25° C | 72% | 1020.9 hPa | 0 mm | - | 464 W/m² | - |
| 1787668816 | 23.89° C | 74% | 1021.3 hPa | 0 mm | - | 488 W/m² | - |
| 1787668512 | 24.44° C | 73% | 1021.3 hPa | 0 mm | - | 465 W/m² | - |
* Rain latest hour (hover to see other rain measurements)
** Current wind speed in m/s (hover to see current wind gust speed)